sensor_id;sensor_type;location;lat;lon;timestamp;P1;durP1;ratioP1;P2;durP2;ratioP2
74972;SDS011;63529;56.320;43.990;2022-09-29T00:00:32;60.60;;;4.00;;
74972;SDS011;63529;56.320;43.990;2022-09-29T00:02:59;28.88;;;3.03;;
74972;SDS011;63529;56.320;43.990;2022-09-29T00:05:26;61.95;;;5.65;;
74972;SDS011;63529;56.320;43.990;2022-09-29T00:07:52;60.58;;;4.38;;
74972;SDS011;63529;56.320;43.990;2022-09-29T00:10:18;71.55;;;4.93;;
74972;SDS011;63529;56.320;43.990;2022-09-29T00:12:44;129.70;;;7.90;;
74972;SDS011;63529;56.320;43.990;2022-09-29T00:15:10;79.85;;;6.35;;
74972;SDS011;63529;56.320;43.990;2022-09-29T00:17:36;118.80;;;6.93;;
74972;SDS011;63529;56.320;43.990;2022-09-29T00:20:02;103.22;;;6.82;;
74972;SDS011;63529;56.320;43.990;2022-09-29T00:22:29;155.65;;;9.27;;
74972;SDS011;63529;56.320;43.990;2022-09-29T00:24:55;153.45;;;10.48;;
74972;SDS011;63529;56.320;43.990;2022-09-29T00:27:21;149.18;;;8.73;;
74972;SDS011;63529;56.320;43.990;2022-09-29T00:29:47;97.97;;;6.93;;
74972;SDS011;63529;56.320;43.990;2022-09-29T00:32:13;123.75;;;7.93;;
74972;SDS011;63529;56.320;43.990;2022-09-29T00:34:39;150.27;;;9.27;;
74972;SDS011;63529;56.320;43.990;2022-09-29T00:37:05;124.93;;;6.70;;
74972;SDS011;63529;56.320;43.990;2022-09-29T00:39:31;129.90;;;7.97;;
74972;SDS011;63529;56.320;43.990;2022-09-29T00:41:57;135.55;;;9.07;;
74972;SDS011;63529;56.320;43.990;2022-09-29T00:47:23;82.80;;;5.55;;
74972;SDS011;63529;56.320;43.990;2022-09-29T00:49:55;135.07;;;7.70;;
74972;SDS011;63529;56.320;43.990;2022-09-29T00:52:38;168.95;;;9.73;;
74972;SDS011;63529;56.320;43.990;2022-09-29T00:55:11;136.82;;;8.60;;
74972;SDS011;63529;56.320;43.990;2022-09-29T00:57:44;111.90;;;6.72;;
74972;SDS011;63529;56.320;43.990;2022-09-29T01:00:31;107.72;;;7.57;;
74972;SDS011;63529;56.320;43.990;2022-09-29T01:03:04;100.40;;;6.45;;
74972;SDS011;63529;56.320;43.990;2022-09-29T01:05:37;115.80;;;6.60;;
74972;SDS011;63529;56.320;43.990;2022-09-29T01:10:54;134.32;;;6.55;;
74972;SDS011;63529;56.320;43.990;2022-09-29T01:13:22;100.18;;;5.85;;
74972;SDS011;63529;56.320;43.990;2022-09-29T01:15:48;115.75;;;7.13;;
74972;SDS011;63529;56.320;43.990;2022-09-29T01:18:14;135.43;;;8.57;;
74972;SDS011;63529;56.320;43.990;2022-09-29T01:20:41;122.55;;;8.13;;
74972;SDS011;63529;56.320;43.990;2022-09-29T01:31:37;85.50;;;5.57;;
74972;SDS011;63529;56.320;43.990;2022-09-29T01:37:19;75.63;;;6.07;;
74972;SDS011;63529;56.320;43.990;2022-09-29T01:39:57;55.40;;;5.40;;
74972;SDS011;63529;56.320;43.990;2022-09-29T01:42:33;39.20;;;4.20;;
74972;SDS011;63529;56.320;43.990;2022-09-29T01:45:26;64.10;;;5.25;;
74972;SDS011;63529;56.320;43.990;2022-09-29T01:47:57;92.00;;;5.28;;
74972;SDS011;63529;56.320;43.990;2022-09-29T01:50:46;94.30;;;5.75;;
74972;SDS011;63529;56.320;43.990;2022-09-29T01:53:17;66.68;;;4.53;;
74972;SDS011;63529;56.320;43.990;2022-09-29T01:55:52;66.53;;;4.43;;
74972;SDS011;63529;56.320;43.990;2022-09-29T01:58:34;75.97;;;4.63;;
74972;SDS011;63529;56.320;43.990;2022-09-29T02:01:08;30.77;;;3.17;;
74972;SDS011;63529;56.320;43.990;2022-09-29T02:03:40;57.53;;;4.00;;
74972;SDS011;63529;56.320;43.990;2022-09-29T02:06:19;54.60;;;3.60;;
74972;SDS011;63529;56.320;43.990;2022-09-29T02:08:52;87.85;;;5.35;;
74972;SDS011;63529;56.320;43.990;2022-09-29T02:11:20;46.25;;;3.92;;
74972;SDS011;63529;56.320;43.990;2022-09-29T02:16:18;105.63;;;6.70;;
74972;SDS011;63529;56.320;43.990;2022-09-29T02:19:11;79.82;;;5.97;;
74972;SDS011;63529;56.320;43.990;2022-09-29T02:21:49;101.30;;;6.35;;
74972;SDS011;63529;56.320;43.990;2022-09-29T02:24:19;77.95;;;5.10;;
74972;SDS011;63529;56.320;43.990;2022-09-29T02:26:49;78.75;;;5.45;;
74972;SDS011;63529;56.320;43.990;2022-09-29T02:29:16;120.07;;;6.05;;
74972;SDS011;63529;56.320;43.990;2022-09-29T02:31:43;102.20;;;6.90;;
74972;SDS011;63529;56.320;43.990;2022-09-29T02:34:12;73.28;;;5.10;;
74972;SDS011;63529;56.320;43.990;2022-09-29T02:36:59;77.47;;;4.93;;
74972;SDS011;63529;56.320;43.990;2022-09-29T02:42:39;169.73;;;9.35;;
74972;SDS011;63529;56.320;43.990;2022-09-29T02:59:14;107.35;;;6.55;;
74972;SDS011;63529;56.320;43.990;2022-09-29T03:01:48;69.65;;;5.97;;
74972;SDS011;63529;56.320;43.990;2022-09-29T03:04:19;73.70;;;6.18;;
74972;SDS011;63529;56.320;43.990;2022-09-29T03:06:46;49.97;;;4.60;;
74972;SDS011;63529;56.320;43.990;2022-09-29T03:09:12;91.53;;;6.82;;
74972;SDS011;63529;56.320;43.990;2022-09-29T03:11:38;67.93;;;5.20;;
74972;SDS011;63529;56.320;43.990;2022-09-29T03:14:04;56.13;;;4.47;;
74972;SDS011;63529;56.320;43.990;2022-09-29T03:16:33;60.63;;;4.25;;
74972;SDS011;63529;56.320;43.990;2022-09-29T03:19:00;58.25;;;4.32;;
74972;SDS011;63529;56.320;43.990;2022-09-29T03:21:26;75.63;;;5.28;;
74972;SDS011;63529;56.320;43.990;2022-09-29T03:23:52;42.97;;;4.25;;
74972;SDS011;63529;56.320;43.990;2022-09-29T03:26:18;55.80;;;4.25;;
74972;SDS011;63529;56.320;43.990;2022-09-29T03:28:44;90.30;;;6.10;;
74972;SDS011;63529;56.320;43.990;2022-09-29T03:31:11;31.65;;;3.35;;
74972;SDS011;63529;56.320;43.990;2022-09-29T03:33:37;55.70;;;4.47;;
74972;SDS011;63529;56.320;43.990;2022-09-29T03:36:04;30.98;;;2.92;;
74972;SDS011;63529;56.320;43.990;2022-09-29T03:38:32;13.60;;;2.40;;
74972;SDS011;63529;56.320;43.990;2022-09-29T03:40:58;20.70;;;2.28;;
74972;SDS011;63529;56.320;43.990;2022-09-29T03:43:23;24.67;;;3.00;;
74972;SDS011;63529;56.320;43.990;2022-09-29T03:45:49;26.65;;;2.95;;
74972;SDS011;63529;56.320;43.990;2022-09-29T03:48:17;29.10;;;2.58;;
74972;SDS011;63529;56.320;43.990;2022-09-29T03:50:44;17.33;;;2.25;;
74972;SDS011;63529;56.320;43.990;2022-09-29T03:53:11;29.75;;;3.03;;
74972;SDS011;63529;56.320;43.990;2022-09-29T03:55:37;27.13;;;2.83;;
74972;SDS011;63529;56.320;43.990;2022-09-29T03:58:03;14.80;;;2.60;;
74972;SDS011;63529;56.320;43.990;2022-09-29T04:00:29;10.10;;;2.20;;
74972;SDS011;63529;56.320;43.990;2022-09-29T04:02:55;32.25;;;2.95;;
74972;SDS011;63529;56.320;43.990;2022-09-29T04:05:21;16.38;;;2.10;;
74972;SDS011;63529;56.320;43.990;2022-09-29T04:07:47;11.93;;;2.22;;
74972;SDS011;63529;56.320;43.990;2022-09-29T04:10:13;23.10;;;2.88;;
74972;SDS011;63529;56.320;43.990;2022-09-29T04:12:39;13.70;;;2.90;;
74972;SDS011;63529;56.320;43.990;2022-09-29T04:15:05;16.20;;;2.80;;
74972;SDS011;63529;56.320;43.990;2022-09-29T04:17:34;26.08;;;2.53;;
74972;SDS011;63529;56.320;43.990;2022-09-29T04:20:00;15.40;;;2.70;;
74972;SDS011;63529;56.320;43.990;2022-09-29T04:22:27;20.08;;;2.95;;
74972;SDS011;63529;56.320;43.990;2022-09-29T04:24:52;16.33;;;3.13;;
74972;SDS011;63529;56.320;43.990;2022-09-29T04:27:18;11.95;;;2.50;;
74972;SDS011;63529;56.320;43.990;2022-09-29T04:29:44;20.02;;;3.10;;
74972;SDS011;63529;56.320;43.990;2022-09-29T04:32:10;10.70;;;2.90;;
74972;SDS011;63529;56.320;43.990;2022-09-29T04:34:36;35.83;;;3.40;;
74972;SDS011;63529;56.320;43.990;2022-09-29T04:37:02;18.73;;;3.53;;
74972;SDS011;63529;56.320;43.990;2022-09-29T04:39:28;39.03;;;4.63;;
74972;SDS011;63529;56.320;43.990;2022-09-29T04:41:54;27.55;;;2.58;;
74972;SDS011;63529;56.320;43.990;2022-09-29T04:44:20;68.65;;;5.57;;
74972;SDS011;63529;56.320;43.990;2022-09-29T04:46:49;55.58;;;4.00;;
74972;SDS011;63529;56.320;43.990;2022-09-29T04:49:16;32.22;;;2.92;;
74972;SDS011;63529;56.320;43.990;2022-09-29T04:51:42;22.92;;;3.22;;
74972;SDS011;63529;56.320;43.990;2022-09-29T04:54:08;47.15;;;3.10;;
74972;SDS011;63529;56.320;43.990;2022-09-29T04:56:34;32.97;;;3.28;;
74972;SDS011;63529;56.320;43.990;2022-09-29T04:59:00;29.05;;;2.88;;
74972;SDS011;63529;56.320;43.990;2022-09-29T05:01:26;45.42;;;3.22;;
74972;SDS011;63529;56.320;43.990;2022-09-29T05:03:52;16.00;;;3.25;;
74972;SDS011;63529;56.320;43.990;2022-09-29T05:06:18;23.83;;;2.83;;
74972;SDS011;63529;56.320;43.990;2022-09-29T05:08:44;26.77;;;3.13;;
74972;SDS011;63529;56.320;43.990;2022-09-29T05:11:10;30.88;;;3.20;;
74972;SDS011;63529;56.320;43.990;2022-09-29T05:13:36;21.90;;;2.65;;
74972;SDS011;63529;56.320;43.990;2022-09-29T05:16:02;18.00;;;2.92;;
74972;SDS011;63529;56.320;43.990;2022-09-29T05:18:29;16.88;;;2.40;;
74972;SDS011;63529;56.320;43.990;2022-09-29T05:20:55;11.55;;;2.42;;
74972;SDS011;63529;56.320;43.990;2022-09-29T05:23:26;11.32;;;2.33;;
74972;SDS011;63529;56.320;43.990;2022-09-29T05:25:52;15.50;;;2.80;;
74972;SDS011;63529;56.320;43.990;2022-09-29T05:28:18;21.92;;;3.03;;
74972;SDS011;63529;56.320;43.990;2022-09-29T05:30:44;8.48;;;2.83;;
74972;SDS011;63529;56.320;43.990;2022-09-29T05:33:10;23.27;;;3.67;;
74972;SDS011;63529;56.320;43.990;2022-09-29T05:35:36;7.95;;;2.45;;
74972;SDS011;63529;56.320;43.990;2022-09-29T05:38:02;10.27;;;3.20;;
74972;SDS011;63529;56.320;43.990;2022-09-29T05:40:28;13.52;;;3.40;;
74972;SDS011;63529;56.320;43.990;2022-09-29T05:42:54;12.90;;;3.10;;
74972;SDS011;63529;56.320;43.990;2022-09-29T05:45:20;15.77;;;3.38;;
74972;SDS011;63529;56.320;43.990;2022-09-29T05:47:46;21.60;;;3.85;;
74972;SDS011;63529;56.320;43.990;2022-09-29T05:50:12;10.43;;;3.35;;
74972;SDS011;63529;56.320;43.990;2022-09-29T05:52:38;15.88;;;3.92;;
74972;SDS011;63529;56.320;43.990;2022-09-29T05:55:06;21.00;;;3.60;;
74972;SDS011;63529;56.320;43.990;2022-09-29T05:57:36;27.40;;;4.65;;
74972;SDS011;63529;56.320;43.990;2022-09-29T06:00:03;33.90;;;5.18;;
74972;SDS011;63529;56.320;43.990;2022-09-29T06:02:38;37.78;;;4.55;;
74972;SDS011;63529;56.320;43.990;2022-09-29T06:05:04;11.63;;;3.80;;
74972;SDS011;63529;56.320;43.990;2022-09-29T06:07:30;11.82;;;3.63;;
74972;SDS011;63529;56.320;43.990;2022-09-29T06:09:56;12.32;;;2.30;;
74972;SDS011;63529;56.320;43.990;2022-09-29T06:12:21;9.75;;;3.20;;
74972;SDS011;63529;56.320;43.990;2022-09-29T06:14:47;7.15;;;2.00;;
74972;SDS011;63529;56.320;43.990;2022-09-29T06:17:13;7.00;;;2.35;;
74972;SDS011;63529;56.320;43.990;2022-09-29T06:19:39;12.52;;;2.65;;
74972;SDS011;63529;56.320;43.990;2022-09-29T06:22:05;4.10;;;2.00;;
74972;SDS011;63529;56.320;43.990;2022-09-29T06:24:31;7.72;;;2.80;;
74972;SDS011;63529;56.320;43.990;2022-09-29T06:26:57;7.72;;;2.17;;
74972;SDS011;63529;56.320;43.990;2022-09-29T06:29:23;6.72;;;2.83;;
74972;SDS011;63529;56.320;43.990;2022-09-29T06:31:49;5.25;;;1.90;;
74972;SDS011;63529;56.320;43.990;2022-09-29T06:34:15;6.38;;;2.05;;
74972;SDS011;63529;56.320;43.990;2022-09-29T06:36:41;9.77;;;3.47;;
74972;SDS011;63529;56.320;43.990;2022-09-29T06:39:27;7.57;;;2.22;;
74972;SDS011;63529;56.320;43.990;2022-09-29T06:41:53;5.50;;;2.45;;
74972;SDS011;63529;56.320;43.990;2022-09-29T06:44:21;7.78;;;2.63;;
74972;SDS011;63529;56.320;43.990;2022-09-29T06:46:49;7.75;;;2.65;;
74972;SDS011;63529;56.320;43.990;2022-09-29T06:49:16;9.07;;;2.63;;
74972;SDS011;63529;56.320;43.990;2022-09-29T06:51:43;5.38;;;3.03;;
74972;SDS011;63529;56.320;43.990;2022-09-29T06:54:12;6.35;;;3.00;;
74972;SDS011;63529;56.320;43.990;2022-09-29T06:56:39;5.40;;;2.80;;
74972;SDS011;63529;56.320;43.990;2022-09-29T06:59:05;8.80;;;2.97;;
74972;SDS011;63529;56.320;43.990;2022-09-29T07:01:32;6.38;;;3.40;;
74972;SDS011;63529;56.320;43.990;2022-09-29T07:03:58;8.68;;;3.70;;
74972;SDS011;63529;56.320;43.990;2022-09-29T07:06:26;6.40;;;3.00;;
74972;SDS011;63529;56.320;43.990;2022-09-29T07:08:57;6.75;;;3.05;;
74972;SDS011;63529;56.320;43.990;2022-09-29T07:11:24;5.78;;;3.13;;
74972;SDS011;63529;56.320;43.990;2022-09-29T07:13:51;9.93;;;3.00;;
74972;SDS011;63529;56.320;43.990;2022-09-29T07:16:18;10.07;;;3.90;;
74972;SDS011;63529;56.320;43.990;2022-09-29T07:18:45;12.57;;;3.90;;
74972;SDS011;63529;56.320;43.990;2022-09-29T07:21:12;6.78;;;2.92;;
74972;SDS011;63529;56.320;43.990;2022-09-29T07:23:43;7.93;;;3.00;;
74972;SDS011;63529;56.320;43.990;2022-09-29T07:26:11;6.45;;;2.75;;
74972;SDS011;63529;56.320;43.990;2022-09-29T07:28:39;12.57;;;3.33;;
74972;SDS011;63529;56.320;43.990;2022-09-29T07:31:09;7.88;;;3.22;;
74972;SDS011;63529;56.320;43.990;2022-09-29T07:33:37;10.63;;;3.42;;
74972;SDS011;63529;56.320;43.990;2022-09-29T07:36:03;28.77;;;6.68;;
74972;SDS011;63529;56.320;43.990;2022-09-29T07:38:30;8.57;;;3.38;;
74972;SDS011;63529;56.320;43.990;2022-09-29T07:41:07;8.20;;;3.20;;
74972;SDS011;63529;56.320;43.990;2022-09-29T07:43:37;10.82;;;3.67;;
74972;SDS011;63529;56.320;43.990;2022-09-29T07:46:04;8.50;;;4.25;;
74972;SDS011;63529;56.320;43.990;2022-09-29T07:48:31;13.95;;;4.53;;
74972;SDS011;63529;56.320;43.990;2022-09-29T07:51:00;22.27;;;4.47;;
74972;SDS011;63529;56.320;43.990;2022-09-29T07:53:27;10.75;;;4.40;;
74972;SDS011;63529;56.320;43.990;2022-09-29T07:55:53;14.07;;;4.60;;
74972;SDS011;63529;56.320;43.990;2022-09-29T07:58:19;10.85;;;4.18;;
74972;SDS011;63529;56.320;43.990;2022-09-29T08:00:51;9.88;;;4.20;;
74972;SDS011;63529;56.320;43.990;2022-09-29T08:03:18;11.90;;;4.85;;
74972;SDS011;63529;56.320;43.990;2022-09-29T08:05:43;12.73;;;4.60;;
74972;SDS011;63529;56.320;43.990;2022-09-29T08:08:09;11.05;;;4.75;;
74972;SDS011;63529;56.320;43.990;2022-09-29T08:10:35;13.52;;;4.38;;
74972;SDS011;63529;56.320;43.990;2022-09-29T08:13:01;10.70;;;4.32;;
74972;SDS011;63529;56.320;43.990;2022-09-29T08:15:27;13.52;;;4.20;;
74972;SDS011;63529;56.320;43.990;2022-09-29T08:17:53;8.95;;;4.10;;
74972;SDS011;63529;56.320;43.990;2022-09-29T08:20:20;19.00;;;6.20;;
74972;SDS011;63529;56.320;43.990;2022-09-29T08:22:47;9.57;;;4.70;;
74972;SDS011;63529;56.320;43.990;2022-09-29T08:25:17;12.90;;;5.28;;
74972;SDS011;63529;56.320;43.990;2022-09-29T08:27:43;9.82;;;4.65;;
74972;SDS011;63529;56.320;43.990;2022-09-29T08:30:10;10.02;;;4.28;;
74972;SDS011;63529;56.320;43.990;2022-09-29T08:32:36;9.43;;;5.00;;
74972;SDS011;63529;56.320;43.990;2022-09-29T08:35:03;10.40;;;3.90;;
74972;SDS011;63529;56.320;43.990;2022-09-29T08:37:30;10.85;;;5.70;;
74972;SDS011;63529;56.320;43.990;2022-09-29T08:39:56;9.05;;;4.38;;
74972;SDS011;63529;56.320;43.990;2022-09-29T08:42:38;12.90;;;4.95;;
74972;SDS011;63529;56.320;43.990;2022-09-29T08:45:20;10.43;;;4.75;;
74972;SDS011;63529;56.320;43.990;2022-09-29T08:48:10;12.65;;;4.82;;
74972;SDS011;63529;56.320;43.990;2022-09-29T08:50:41;14.32;;;5.13;;
74972;SDS011;63529;56.320;43.990;2022-09-29T08:53:13;13.88;;;5.85;;
74972;SDS011;63529;56.320;43.990;2022-09-29T08:58:25;9.80;;;5.13;;
74972;SDS011;63529;56.320;43.990;2022-09-29T09:12:00;11.90;;;4.78;;
74972;SDS011;63529;56.320;43.990;2022-09-29T09:26:25;12.43;;;6.97;;
74972;SDS011;63529;56.320;43.990;2022-09-29T09:28:59;14.32;;;6.78;;
74972;SDS011;63529;56.320;43.990;2022-09-29T09:31:32;13.30;;;6.30;;
74972;SDS011;63529;56.320;43.990;2022-09-29T09:34:12;17.65;;;8.40;;
74972;SDS011;63529;56.320;43.990;2022-09-29T09:39:55;18.60;;;8.95;;
74972;SDS011;63529;56.320;43.990;2022-09-29T09:42:26;19.05;;;8.57;;
74972;SDS011;63529;56.320;43.990;2022-09-29T09:44:57;18.38;;;8.20;;
74972;SDS011;63529;56.320;43.990;2022-09-29T09:47:30;17.25;;;8.85;;
74972;SDS011;63529;56.320;43.990;2022-09-29T09:50:04;19.98;;;9.73;;
74972;SDS011;63529;56.320;43.990;2022-09-29T09:52:40;20.42;;;9.65;;
74972;SDS011;63529;56.320;43.990;2022-09-29T09:55:18;18.42;;;9.07;;
74972;SDS011;63529;56.320;43.990;2022-09-29T09:57:52;19.02;;;9.60;;
74972;SDS011;63529;56.320;43.990;2022-09-29T10:00:47;21.30;;;11.18;;
74972;SDS011;63529;56.320;43.990;2022-09-29T10:03:29;22.75;;;11.18;;
74972;SDS011;63529;56.320;43.990;2022-09-29T10:05:55;26.25;;;12.15;;
74972;SDS011;63529;56.320;43.990;2022-09-29T10:08:26;28.35;;;12.00;;
74972;SDS011;63529;56.320;43.990;2022-09-29T10:10:54;25.52;;;12.52;;
74972;SDS011;63529;56.320;43.990;2022-09-29T10:13:21;26.35;;;12.98;;
74972;SDS011;63529;56.320;43.990;2022-09-29T10:16:08;26.67;;;12.68;;
74972;SDS011;63529;56.320;43.990;2022-09-29T10:18:42;25.60;;;11.60;;
74972;SDS011;63529;56.320;43.990;2022-09-29T10:21:18;22.48;;;10.48;;
74972;SDS011;63529;56.320;43.990;2022-09-29T10:23:54;16.40;;;7.63;;
74972;SDS011;63529;56.320;43.990;2022-09-29T10:26:35;16.35;;;8.02;;
74972;SDS011;63529;56.320;43.990;2022-09-29T10:32:12;20.25;;;10.30;;
74972;SDS011;63529;56.320;43.990;2022-09-29T10:34:39;19.70;;;9.30;;
74972;SDS011;63529;56.320;43.990;2022-09-29T10:39:48;21.98;;;9.80;;
74972;SDS011;63529;56.320;43.990;2022-09-29T10:44:41;21.08;;;9.40;;
74972;SDS011;63529;56.320;43.990;2022-09-29T10:47:11;19.83;;;9.52;;
74972;SDS011;63529;56.320;43.990;2022-09-29T10:49:39;21.83;;;10.75;;
74972;SDS011;63529;56.320;43.990;2022-09-29T10:52:06;22.38;;;10.45;;
74972;SDS011;63529;56.320;43.990;2022-09-29T10:54:51;18.65;;;8.80;;
74972;SDS011;63529;56.320;43.990;2022-09-29T10:57:23;20.45;;;10.18;;
74972;SDS011;63529;56.320;43.990;2022-09-29T10:59:52;21.02;;;10.10;;
74972;SDS011;63529;56.320;43.990;2022-09-29T11:04:57;19.52;;;9.38;;
74972;SDS011;63529;56.320;43.990;2022-09-29T11:07:25;22.25;;;10.10;;
74972;SDS011;63529;56.320;43.990;2022-09-29T11:09:52;30.70;;;15.40;;
74972;SDS011;63529;56.320;43.990;2022-09-29T11:14:53;26.88;;;12.07;;
74972;SDS011;63529;56.320;43.990;2022-09-29T11:17:38;26.95;;;12.18;;
74972;SDS011;63529;56.320;43.990;2022-09-29T11:20:05;35.47;;;14.65;;
74972;SDS011;63529;56.320;43.990;2022-09-29T11:30:55;25.35;;;12.18;;
74972;SDS011;63529;56.320;43.990;2022-09-29T11:36:25;31.75;;;16.73;;
74972;SDS011;63529;56.320;43.990;2022-09-29T11:50:12;32.15;;;14.48;;
74972;SDS011;63529;56.320;43.990;2022-09-29T12:04:08;40.50;;;18.30;;
74972;SDS011;63529;56.320;43.990;2022-09-29T12:06:55;45.80;;;20.88;;
74972;SDS011;63529;56.320;43.990;2022-09-29T12:17:58;37.92;;;17.92;;
74972;SDS011;63529;56.320;43.990;2022-09-29T12:20:28;35.72;;;16.85;;
74972;SDS011;63529;56.320;43.990;2022-09-29T12:23:00;38.03;;;17.00;;
74972;SDS011;63529;56.320;43.990;2022-09-29T12:25:31;37.88;;;17.08;;
74972;SDS011;63529;56.320;43.990;2022-09-29T12:28:11;40.92;;;17.90;;
74972;SDS011;63529;56.320;43.990;2022-09-29T12:31:00;38.85;;;17.40;;
74972;SDS011;63529;56.320;43.990;2022-09-29T12:33:45;41.05;;;17.27;;
74972;SDS011;63529;56.320;43.990;2022-09-29T12:39:21;39.83;;;15.63;;
74972;SDS011;63529;56.320;43.990;2022-09-29T12:44:43;43.53;;;18.73;;
74972;SDS011;63529;56.320;43.990;2022-09-29T12:47:20;44.10;;;19.00;;
74972;SDS011;63529;56.320;43.990;2022-09-29T12:50:25;37.80;;;17.38;;
74972;SDS011;63529;56.320;43.990;2022-09-29T12:53:05;33.95;;;14.38;;
74972;SDS011;63529;56.320;43.990;2022-09-29T12:55:54;36.53;;;16.10;;
74972;SDS011;63529;56.320;43.990;2022-09-29T13:12:02;34.67;;;14.93;;
74972;SDS011;63529;56.320;43.990;2022-09-29T13:20:36;32.08;;;14.73;;
74972;SDS011;63529;56.320;43.990;2022-09-29T13:28:32;37.85;;;16.40;;
74972;SDS011;63529;56.320;43.990;2022-09-29T13:31:07;35.88;;;15.25;;
74972;SDS011;63529;56.320;43.990;2022-09-29T13:33:36;37.85;;;16.23;;
74972;SDS011;63529;56.320;43.990;2022-09-29T13:36:03;34.53;;;15.40;;
74972;SDS011;63529;56.320;43.990;2022-09-29T13:38:29;38.72;;;16.75;;
74972;SDS011;63529;56.320;43.990;2022-09-29T14:02:45;33.45;;;12.90;;
74972;SDS011;63529;56.320;43.990;2022-09-29T14:10:41;33.08;;;13.48;;
74972;SDS011;63529;56.320;43.990;2022-09-29T14:13:39;31.50;;;14.05;;
74972;SDS011;63529;56.320;43.990;2022-09-29T14:21:55;37.22;;;14.73;;
74972;SDS011;63529;56.320;43.990;2022-09-29T14:29:43;40.50;;;16.30;;
74972;SDS011;63529;56.320;43.990;2022-09-29T14:32:19;25.77;;;12.52;;
74972;SDS011;63529;56.320;43.990;2022-09-29T14:34:52;35.63;;;13.70;;
74972;SDS011;63529;56.320;43.990;2022-09-29T14:37:21;35.88;;;12.68;;
74972;SDS011;63529;56.320;43.990;2022-09-29T14:39:49;32.13;;;13.05;;
74972;SDS011;63529;56.320;43.990;2022-09-29T14:42:34;38.80;;;13.75;;
74972;SDS011;63529;56.320;43.990;2022-09-29T14:45:01;27.40;;;12.35;;
74972;SDS011;63529;56.320;43.990;2022-09-29T14:51:21;30.42;;;12.13;;
74972;SDS011;63529;56.320;43.990;2022-09-29T14:59:51;33.53;;;12.55;;
74972;SDS011;63529;56.320;43.990;2022-09-29T15:02:29;30.90;;;12.38;;
74972;SDS011;63529;56.320;43.990;2022-09-29T15:04:58;36.40;;;14.68;;
74972;SDS011;63529;56.320;43.990;2022-09-29T15:07:25;32.78;;;14.57;;
74972;SDS011;63529;56.320;43.990;2022-09-29T15:09:57;27.70;;;11.90;;
74972;SDS011;63529;56.320;43.990;2022-09-29T15:12:30;36.47;;;13.27;;
74972;SDS011;63529;56.320;43.990;2022-09-29T15:14:57;32.97;;;12.73;;
74972;SDS011;63529;56.320;43.990;2022-09-29T15:20:05;40.78;;;15.40;;
74972;SDS011;63529;56.320;43.990;2022-09-29T15:25:36;42.92;;;17.15;;
74972;SDS011;63529;56.320;43.990;2022-09-29T15:30:42;32.42;;;12.27;;
74972;SDS011;63529;56.320;43.990;2022-09-29T15:33:14;37.88;;;14.27;;
74972;SDS011;63529;56.320;43.990;2022-09-29T15:35:45;60.15;;;19.58;;
74972;SDS011;63529;56.320;43.990;2022-09-29T15:38:17;56.03;;;20.85;;
74972;SDS011;63529;56.320;43.990;2022-09-29T15:40:55;62.88;;;20.08;;
74972;SDS011;63529;56.320;43.990;2022-09-29T15:43:24;45.03;;;16.55;;
74972;SDS011;63529;56.320;43.990;2022-09-29T15:45:54;56.42;;;18.83;;
74972;SDS011;63529;56.320;43.990;2022-09-29T15:48:22;44.25;;;16.52;;
74972;SDS011;63529;56.320;43.990;2022-09-29T15:50:48;54.45;;;18.55;;
74972;SDS011;63529;56.320;43.990;2022-09-29T15:53:15;53.97;;;17.88;;
74972;SDS011;63529;56.320;43.990;2022-09-29T15:55:41;47.17;;;17.17;;
74972;SDS011;63529;56.320;43.990;2022-09-29T16:01:12;37.60;;;14.20;;
74972;SDS011;63529;56.320;43.990;2022-09-29T16:03:41;49.17;;;16.52;;
74972;SDS011;63529;56.320;43.990;2022-09-29T16:09:04;51.40;;;15.98;;
74972;SDS011;63529;56.320;43.990;2022-09-29T16:11:39;46.67;;;15.25;;
74972;SDS011;63529;56.320;43.990;2022-09-29T16:14:09;63.80;;;19.63;;
74972;SDS011;63529;56.320;43.990;2022-09-29T16:16:42;55.55;;;16.92;;
74972;SDS011;63529;56.320;43.990;2022-09-29T16:21:56;51.75;;;16.90;;
74972;SDS011;63529;56.320;43.990;2022-09-29T16:24:27;56.28;;;15.60;;
74972;SDS011;63529;56.320;43.990;2022-09-29T16:26:55;51.58;;;16.58;;
74972;SDS011;63529;56.320;43.990;2022-09-29T16:35:23;38.65;;;12.88;;
74972;SDS011;63529;56.320;43.990;2022-09-29T16:38:28;44.78;;;15.07;;
74972;SDS011;63529;56.320;43.990;2022-09-29T16:41:36;39.58;;;14.23;;
74972;SDS011;63529;56.320;43.990;2022-09-29T16:44:04;42.42;;;15.82;;
74972;SDS011;63529;56.320;43.990;2022-09-29T16:46:52;37.42;;;14.75;;
74972;SDS011;63529;56.320;43.990;2022-09-29T16:49:23;36.38;;;14.20;;
74972;SDS011;63529;56.320;43.990;2022-09-29T16:51:53;34.75;;;14.02;;
74972;SDS011;63529;56.320;43.990;2022-09-29T16:59:44;36.55;;;14.40;;
74972;SDS011;63529;56.320;43.990;2022-09-29T17:02:11;47.78;;;14.60;;
74972;SDS011;63529;56.320;43.990;2022-09-29T17:04:38;30.52;;;12.18;;
74972;SDS011;63529;56.320;43.990;2022-09-29T17:07:03;31.55;;;12.50;;
74972;SDS011;63529;56.320;43.990;2022-09-29T17:09:29;38.85;;;13.77;;
74972;SDS011;63529;56.320;43.990;2022-09-29T17:11:56;29.67;;;12.50;;
74972;SDS011;63529;56.320;43.990;2022-09-29T17:14:23;32.35;;;12.35;;
74972;SDS011;63529;56.320;43.990;2022-09-29T17:16:49;26.77;;;11.40;;
74972;SDS011;63529;56.320;43.990;2022-09-29T17:19:17;29.40;;;12.23;;
74972;SDS011;63529;56.320;43.990;2022-09-29T17:21:43;32.97;;;12.02;;
74972;SDS011;63529;56.320;43.990;2022-09-29T17:24:09;28.48;;;11.88;;
74972;SDS011;63529;56.320;43.990;2022-09-29T17:26:39;27.40;;;11.93;;
74972;SDS011;63529;56.320;43.990;2022-09-29T17:29:28;28.05;;;11.80;;
74972;SDS011;63529;56.320;43.990;2022-09-29T17:31:54;38.20;;;13.40;;
74972;SDS011;63529;56.320;43.990;2022-09-29T17:34:20;25.52;;;11.32;;
74972;SDS011;63529;56.320;43.990;2022-09-29T17:36:54;29.95;;;11.45;;
74972;SDS011;63529;56.320;43.990;2022-09-29T17:39:22;33.97;;;12.93;;
74972;SDS011;63529;56.320;43.990;2022-09-29T17:41:48;26.58;;;11.70;;
74972;SDS011;63529;56.320;43.990;2022-09-29T17:44:14;30.50;;;12.55;;
74972;SDS011;63529;56.320;43.990;2022-09-29T17:46:40;27.50;;;11.30;;
74972;SDS011;63529;56.320;43.990;2022-09-29T17:49:12;29.63;;;10.95;;
74972;SDS011;63529;56.320;43.990;2022-09-29T17:51:40;27.77;;;11.80;;
74972;SDS011;63529;56.320;43.990;2022-09-29T17:54:06;25.00;;;11.30;;
74972;SDS011;63529;56.320;43.990;2022-09-29T17:56:33;33.03;;;12.75;;
74972;SDS011;63529;56.320;43.990;2022-09-29T17:59:08;33.92;;;12.75;;
74972;SDS011;63529;56.320;43.990;2022-09-29T18:01:35;26.60;;;11.32;;
74972;SDS011;63529;56.320;43.990;2022-09-29T18:04:02;26.27;;;11.57;;
74972;SDS011;63529;56.320;43.990;2022-09-29T18:06:29;24.60;;;10.82;;
74972;SDS011;63529;56.320;43.990;2022-09-29T18:08:59;27.25;;;12.68;;
74972;SDS011;63529;56.320;43.990;2022-09-29T18:11:25;21.10;;;10.05;;
74972;SDS011;63529;56.320;43.990;2022-09-29T18:13:51;28.83;;;12.85;;
74972;SDS011;63529;56.320;43.990;2022-09-29T18:16:18;25.58;;;11.65;;
74972;SDS011;63529;56.320;43.990;2022-09-29T18:18:46;32.88;;;10.88;;
74972;SDS011;63529;56.320;43.990;2022-09-29T18:21:12;27.42;;;11.32;;
74972;SDS011;63529;56.320;43.990;2022-09-29T18:23:42;30.80;;;10.95;;